createdAt,value
2019-02-27T00:02:06.153Z,3.70
2019-02-27T00:04:39.238Z,3.80
2019-02-27T00:09:45.124Z,3.50
2019-02-27T00:17:23.937Z,3.30
2019-02-27T00:19:55.592Z,4.50
2019-02-27T00:22:27.161Z,3.50
2019-02-27T00:32:35.734Z,3.40
2019-02-27T00:37:40.619Z,3.10
2019-02-27T00:42:43.782Z,2.80
2019-02-27T00:47:46.849Z,3.20
2019-02-27T00:55:24.203Z,3.10
2019-02-27T00:57:55.607Z,2.50
2019-02-27T01:02:57.942Z,3.20
2019-02-27T01:08:00.060Z,2.90
2019-02-27T01:13:03.706Z,4.10
2019-02-27T01:23:10.878Z,2.80
2019-02-27T01:30:43.496Z,2.80
2019-02-27T01:33:15.077Z,2.80
2019-02-27T01:38:17.809Z,2.70
2019-02-27T01:40:51.530Z,2.80
2019-02-27T01:45:54.286Z,2.50
2019-02-27T01:48:25.981Z,2.30
2019-02-27T01:50:57.481Z,2.40
2019-02-27T01:56:02.409Z,3.00
2019-02-27T01:58:35.632Z,2.60
2019-02-27T02:01:08.177Z,2.40
2019-02-27T02:03:41.345Z,2.20
2019-02-27T02:06:12.683Z,2.10
2019-02-27T02:08:48.047Z,2.30
2019-02-27T02:11:17.897Z,2.40
2019-02-27T02:14:11.452Z,2.30
2019-02-27T02:16:56.673Z,2.00
2019-02-27T02:20:04.998Z,2.40
2019-02-27T02:23:14.722Z,2.60
2019-02-27T02:29:04.544Z,2.30
2019-02-27T02:31:53.929Z,2.30
2019-02-27T02:37:33.770Z,2.40
2019-02-27T02:41:00.406Z,2.20
2019-02-27T02:55:12.011Z,2.20
2019-02-27T03:00:53.087Z,1.80
2019-02-27T03:03:46.312Z,1.90
2019-02-27T03:06:35.972Z,1.70
2019-02-27T03:09:51.313Z,2.10
2019-02-27T03:16:07.375Z,2.00
2019-02-27T03:19:06.539Z,1.70
2019-02-27T03:21:50.401Z,1.20
2019-02-27T03:24:49.962Z,1.90
2019-02-27T03:28:10.811Z,1.90
2019-02-27T03:31:32.205Z,1.80
2019-02-27T03:37:38.243Z,1.50
2019-02-27T03:43:23.688Z,1.50
2019-02-27T03:49:05.762Z,1.50
2019-02-27T03:52:09.019Z,1.40
2019-02-27T03:57:54.885Z,1.40
2019-02-27T04:03:54.207Z,1.20
2019-02-27T04:07:17.034Z,1.50
2019-02-27T04:09:54.890Z,1.40
2019-02-27T04:12:22.356Z,1.30
2019-02-27T04:17:29.801Z,1.50
2019-02-27T04:22:36.223Z,1.30
2019-02-27T04:25:06.999Z,1.50
2019-02-27T04:27:38.600Z,1.20
2019-02-27T04:30:14.677Z,1.20
2019-02-27T04:32:48.700Z,1.20
2019-02-27T04:35:18.498Z,1.20
2019-02-27T04:37:54.127Z,1.20
2019-02-27T04:40:25.058Z,1.20
2019-02-27T04:42:56.962Z,1.10
2019-02-27T04:45:30.385Z,1.10
2019-02-27T04:48:02.056Z,1.10
2019-02-27T04:50:33.674Z,1.10
2019-02-27T04:53:05.414Z,1.10
2019-02-27T04:55:40.621Z,1.10
2019-02-27T04:58:11.952Z,1.10
2019-02-27T05:00:43.565Z,1.20
2019-02-27T05:03:15.095Z,1.20
2019-02-27T05:05:47.342Z,1.20
2019-02-27T05:08:18.969Z,1.10
2019-02-27T05:10:51.240Z,1.00
2019-02-27T05:13:23.176Z,1.10
2019-02-27T05:15:55.216Z,1.40
2019-02-27T05:18:29.565Z,1.30
2019-02-27T05:21:00.925Z,0.90
2019-02-27T05:28:38.187Z,1.20
2019-02-27T05:31:10.370Z,0.90
2019-02-27T05:33:42.714Z,1.10
2019-02-27T05:36:14.505Z,1.30
2019-02-27T05:41:18.674Z,1.30
2019-02-27T05:43:50.443Z,1.10
2019-02-27T05:48:53.354Z,1.10
2019-02-27T05:53:58.493Z,1.00
2019-02-27T05:56:33.767Z,0.70
2019-02-27T05:59:07.636Z,1.50
2019-02-27T06:01:39.216Z,1.30
2019-02-27T06:04:13.608Z,1.20
2019-02-27T06:06:45.685Z,0.60
2019-02-27T06:09:17.481Z,1.00
2019-02-27T06:16:51.989Z,1.20
2019-02-27T06:19:23.523Z,1.20
2019-02-27T06:21:56.383Z,1.60
2019-02-27T06:26:58.381Z,2.00
2019-02-27T06:29:30.097Z,1.80
2019-02-27T06:32:01.972Z,1.80
2019-02-27T06:34:34.834Z,2.10
2019-02-27T06:37:06.993Z,2.20
2019-02-27T06:42:10.592Z,3.10
2019-02-27T06:44:42.488Z,3.40
2019-02-27T06:47:17.071Z,3.70
2019-02-27T06:52:21.783Z,4.20
2019-02-27T06:54:56.458Z,4.10
2019-02-27T07:00:02.188Z,4.90
2019-02-27T07:02:36.617Z,5.10
2019-02-27T07:05:13.241Z,5.30
2019-02-27T07:07:49.972Z,5.60
2019-02-27T07:10:22.979Z,6.90
2019-02-27T07:13:00.376Z,6.80
2019-02-27T07:15:32.563Z,6.50
2019-02-27T07:23:07.768Z,7.20
2019-02-27T07:25:42.027Z,7.30
2019-02-27T07:28:13.229Z,7.80
2019-02-27T07:30:45.617Z,7.80
2019-02-27T07:33:17.279Z,8.30
2019-02-27T07:35:48.837Z,7.30
2019-02-27T07:38:21.608Z,8.60
2019-02-27T07:43:25.410Z,9.10
2019-02-27T07:45:56.820Z,9.10
2019-02-27T07:48:28.155Z,9.70
2019-02-27T07:50:59.677Z,9.50
2019-02-27T07:53:31.283Z,9.70
2019-02-27T07:56:04.442Z,10.50
2019-02-27T07:58:35.802Z,9.00
2019-02-27T08:01:07.612Z,10.40
2019-02-27T08:03:39.135Z,10.10
2019-02-27T08:13:44.447Z,10.30
2019-02-27T08:18:47.203Z,11.20
2019-02-27T08:21:19.934Z,11.10
2019-02-27T08:26:22.238Z,11.30
2019-02-27T08:31:27.930Z,11.70
2019-02-27T08:36:29.421Z,11.60
2019-02-27T08:41:34.919Z,12.00
2019-02-27T08:51:42.166Z,12.10
2019-02-27T08:56:47.186Z,12.00
2019-02-27T09:06:51.641Z,13.10
2019-02-27T09:09:23.249Z,12.60
2019-02-27T09:11:58.085Z,12.80
2019-02-27T09:14:29.574Z,12.10
2019-02-27T09:17:01.110Z,12.50
2019-02-27T09:27:05.721Z,13.00
2019-02-27T09:29:37.516Z,13.10
2019-02-27T09:37:13.983Z,13.00
2019-02-27T09:42:19.703Z,13.00
2019-02-27T09:44:52.356Z,13.20
2019-02-27T09:47:25.848Z,13.30
2019-02-27T09:49:56.743Z,13.40
2019-02-27T09:52:30.105Z,13.50
2019-02-27T09:55:02.104Z,13.50
2019-02-27T09:57:35.357Z,13.60
2019-02-27T10:00:26.720Z,13.70
2019-02-27T10:02:58.348Z,13.80
2019-02-27T10:05:30.257Z,13.80
2019-02-27T10:08:02.037Z,13.70
2019-02-27T10:10:33.765Z,13.90
2019-02-27T10:13:05.176Z,13.80
2019-02-27T10:15:37.094Z,14.00
2019-02-27T10:18:09.306Z,13.90
2019-02-27T10:20:40.830Z,13.90
2019-02-27T10:23:13.210Z,14.00
2019-02-27T10:25:44.900Z,13.80
2019-02-27T10:28:16.567Z,14.00
2019-02-27T10:30:50.888Z,14.10
2019-02-27T10:33:22.351Z,14.10
2019-02-27T10:35:53.726Z,14.10
2019-02-27T10:38:26.172Z,14.00
2019-02-27T10:40:58.837Z,14.00
2019-02-27T10:43:30.333Z,13.90
2019-02-27T10:46:02.050Z,13.80
2019-02-27T10:48:33.828Z,13.70
2019-02-27T10:51:05.146Z,13.60
2019-02-27T10:53:37.150Z,13.50
2019-02-27T10:56:08.672Z,13.50
2019-02-27T10:58:40.270Z,13.40
2019-02-27T11:01:11.820Z,13.30
2019-02-27T11:03:43.428Z,13.20
2019-02-27T11:06:15.044Z,13.10
2019-02-27T11:08:46.630Z,13.00
2019-02-27T11:11:18.126Z,12.90
2019-02-27T11:13:51.737Z,12.80
2019-02-27T11:16:24.212Z,12.60
2019-02-27T11:23:59.828Z,12.80
2019-02-27T11:26:33.336Z,13.10
2019-02-27T11:34:07.867Z,12.60
2019-02-27T11:36:40.055Z,12.60
2019-02-27T11:39:12.892Z,12.60
2019-02-27T11:41:46.093Z,12.70
2019-02-27T11:44:18.419Z,12.80
2019-02-27T11:46:58.431Z,12.60
2019-02-27T11:49:23.226Z,12.50
2019-02-27T11:54:26.543Z,12.40
2019-02-27T11:56:58.190Z,11.90
2019-02-27T12:04:35.284Z,11.90
2019-02-27T12:07:06.765Z,11.90
2019-02-27T12:09:38.821Z,11.90
2019-02-27T12:12:10.513Z,11.90
2019-02-27T12:14:42.295Z,11.40
2019-02-27T12:17:14.102Z,12.10
2019-02-27T12:19:45.859Z,11.50
2019-02-27T12:22:17.489Z,11.80
2019-02-27T12:24:50.359Z,12.00
2019-02-27T12:27:47.449Z,11.90
2019-02-27T12:29:56.625Z,12.10
2019-02-27T12:32:27.851Z,12.30
2019-02-27T12:40:04.938Z,12.30
2019-02-27T12:42:40.287Z,11.70
2019-02-27T12:45:13.371Z,11.20
2019-02-27T12:50:17.676Z,11.80
2019-02-27T12:52:49.134Z,11.50
2019-02-27T12:55:21.553Z,12.10
2019-02-27T13:00:27.995Z,12.00
2019-02-27T13:03:00.296Z,12.30
2019-02-27T13:05:32.136Z,12.10
2019-02-27T13:08:03.685Z,12.10
2019-02-27T13:10:35.889Z,12.00
2019-02-27T13:15:41.001Z,12.00
2019-02-27T13:18:12.567Z,11.90
2019-02-27T13:20:45.721Z,12.20
2019-02-27T13:23:18.748Z,11.90
2019-02-27T13:25:50.192Z,12.10
2019-02-27T13:30:53.157Z,11.70
2019-02-27T13:33:25.030Z,11.80
2019-02-27T13:35:56.746Z,11.80
2019-02-27T13:38:32.770Z,12.20
2019-02-27T13:43:35.474Z,12.00
2019-02-27T13:46:07.240Z,11.90
2019-02-27T13:48:39.839Z,11.60
2019-02-27T13:53:44.829Z,11.80
2019-02-27T13:56:16.518Z,11.80
2019-02-27T13:58:47.991Z,11.80
2019-02-27T14:01:19.541Z,11.70
2019-02-27T14:03:50.853Z,11.40
2019-02-27T14:06:22.644Z,11.80
2019-02-27T14:08:55.312Z,11.70
2019-02-27T14:11:27.172Z,12.30
2019-02-27T14:14:00.578Z,11.30
2019-02-27T14:16:34.773Z,11.80
2019-02-27T14:19:06.156Z,11.00
2019-02-27T14:21:39.630Z,11.70
2019-02-27T14:24:10.795Z,11.50
2019-02-27T14:26:42.459Z,11.70
2019-02-27T14:29:13.841Z,11.60
2019-02-27T14:31:45.490Z,11.20
2019-02-27T14:34:17.014Z,12.40
2019-02-27T14:39:29.689Z,11.50
2019-02-27T14:42:04.109Z,11.20
2019-02-27T14:44:38.435Z,11.20
2019-02-27T14:47:10.111Z,11.20
2019-02-27T14:49:44.564Z,10.90
2019-02-27T14:52:22.738Z,11.00
2019-02-27T14:54:54.075Z,11.10
2019-02-27T14:57:26.083Z,11.00
2019-02-27T14:59:57.513Z,11.00
2019-02-27T15:02:28.890Z,11.50
2019-02-27T15:05:06.096Z,11.60
2019-02-27T15:07:34.040Z,10.80
2019-02-27T15:10:07.278Z,11.10
2019-02-27T15:12:40.595Z,11.10
2019-02-27T15:15:14.908Z,11.70
2019-02-27T15:17:46.390Z,10.90
2019-02-27T15:20:18.583Z,10.70
2019-02-27T15:22:52.570Z,10.70
2019-02-27T15:25:23.188Z,10.70
2019-02-27T15:27:58.869Z,10.70
2019-02-27T15:30:30.577Z,10.30
2019-02-27T15:33:04.875Z,10.90
2019-02-27T15:35:39.318Z,10.70
2019-02-27T15:38:13.670Z,11.10
2019-02-27T15:40:45.379Z,10.80
2019-02-27T15:43:18.163Z,10.50
2019-02-27T15:45:49.887Z,10.60
2019-02-27T15:48:21.654Z,10.20
2019-02-27T15:50:56.411Z,10.80
2019-02-27T15:53:26.630Z,10.40
2019-02-27T15:55:58.240Z,10.20
2019-02-27T15:58:30.034Z,10.60
2019-02-27T16:01:02.301Z,10.20
2019-02-27T16:03:37.516Z,10.10
2019-02-27T16:06:09.282Z,10.10
2019-02-27T16:08:41.938Z,10.00
2019-02-27T16:11:21.138Z,10.00
2019-02-27T16:13:52.839Z,9.90
2019-02-27T16:16:26.026Z,9.80
2019-02-27T16:19:00.608Z,9.80
2019-02-27T16:21:32.162Z,9.70
2019-02-27T16:24:05.687Z,9.60
2019-02-27T16:26:37.202Z,9.50
2019-02-27T16:29:08.705Z,9.50
2019-02-27T16:31:40.865Z,9.40
2019-02-27T16:34:13.337Z,9.30
2019-02-27T16:36:46.927Z,9.20
2019-02-27T16:39:18.673Z,9.10
2019-02-27T16:41:51.681Z,9.30
2019-02-27T16:44:24.148Z,8.30
2019-02-27T16:46:55.476Z,8.30
2019-02-27T16:49:27.541Z,8.60
2019-02-27T16:51:58.998Z,8.80
2019-02-27T16:54:30.631Z,7.70
2019-02-27T16:57:03.130Z,8.20
2019-02-27T16:59:34.834Z,7.70
2019-02-27T17:02:06.035Z,8.70
2019-02-27T17:04:38.806Z,8.40
2019-02-27T17:07:14.391Z,8.50
2019-02-27T17:09:45.994Z,8.40
2019-02-27T17:12:18.539Z,8.10
2019-02-27T17:14:49.892Z,8.40
2019-02-27T17:17:23.251Z,8.20
2019-02-27T17:19:55.384Z,9.00
2019-02-27T17:25:01.200Z,7.90
2019-02-27T17:27:36.993Z,8.00
2019-02-27T17:30:21.610Z,8.00
2019-02-27T17:32:53.157Z,8.00
2019-02-27T17:35:25.570Z,7.80
2019-02-27T17:37:58.421Z,8.00
2019-02-27T17:40:36.426Z,8.00
2019-02-27T17:43:14.183Z,8.00
2019-02-27T17:45:54.607Z,8.00
2019-02-27T17:48:27.944Z,8.00
2019-02-27T17:50:59.921Z,8.00
2019-02-27T17:53:31.973Z,8.00
2019-02-27T17:58:54.321Z,8.30
2019-02-27T18:03:57.616Z,7.50
2019-02-27T18:14:09.882Z,7.80
2019-02-27T18:21:44.956Z,7.80
2019-02-27T18:24:16.439Z,8.20
2019-02-27T18:26:56.073Z,8.00
2019-02-27T18:29:27.697Z,7.70
2019-02-27T18:32:06.154Z,8.10
2019-02-27T18:34:33.300Z,7.90
2019-02-27T18:37:06.411Z,7.90
2019-02-27T18:39:39.233Z,7.60
2019-02-27T18:42:12.201Z,8.00
2019-02-27T18:44:43.679Z,8.00
2019-02-27T18:47:16.969Z,7.80
2019-02-27T18:49:49.026Z,8.40
2019-02-27T18:52:21.834Z,7.70
2019-02-27T18:54:54.697Z,8.00
2019-02-27T18:57:27.311Z,7.50
2019-02-27T19:02:34.362Z,7.60
2019-02-27T19:05:06.857Z,8.10
2019-02-27T19:10:10.642Z,7.90
2019-02-27T19:12:44.075Z,7.50
2019-02-27T19:15:18.561Z,7.60
2019-02-27T19:17:50.410Z,7.20
2019-02-27T19:20:25.141Z,7.00
2019-02-27T19:25:34.086Z,7.00
2019-02-27T19:28:05.391Z,7.60
2019-02-27T19:35:41.646Z,6.80
2019-02-27T19:38:14.935Z,6.90
2019-02-27T19:40:47.088Z,6.90
2019-02-27T19:43:21.101Z,6.60
2019-02-27T19:46:01.306Z,6.40
2019-02-27T19:51:06.799Z,6.60
2019-02-27T19:53:39.587Z,6.70
2019-02-27T20:03:49.632Z,6.50
2019-02-27T20:06:21.260Z,6.30
2019-02-27T20:08:55.974Z,6.80
2019-02-27T20:11:27.392Z,6.80
2019-02-27T20:14:02.097Z,6.30
2019-02-27T20:16:33.337Z,6.40
2019-02-27T20:34:19.989Z,6.80
2019-02-27T20:41:56.414Z,6.80
2019-02-27T20:44:28.126Z,7.20
2019-02-27T20:47:01.338Z,7.30
2019-02-27T20:49:34.279Z,7.40
2019-02-27T20:57:10.210Z,7.60
2019-02-27T21:07:22.016Z,8.30
2019-02-27T21:17:20.866Z,8.10
2019-02-27T21:32:36.179Z,8.70
2019-02-27T21:42:45.873Z,8.60
2019-02-27T21:50:22.153Z,8.40
2019-02-27T21:57:58.098Z,8.00
2019-02-27T22:03:05.016Z,8.50
2019-02-27T22:05:42.484Z,7.90
2019-02-27T22:15:42.339Z,7.70
2019-02-27T22:18:15.052Z,8.00
2019-02-27T22:23:17.601Z,7.60
2019-02-27T22:25:49.682Z,8.20
2019-02-27T22:28:21.159Z,8.10
2019-02-27T22:30:52.661Z,8.10
2019-02-27T22:33:24.119Z,7.60
2019-02-27T22:35:55.859Z,7.70
2019-02-27T22:38:28.861Z,7.80
2019-02-27T22:41:00.464Z,7.60
2019-02-27T22:43:35.130Z,7.60
2019-02-27T22:46:07.139Z,7.80
2019-02-27T22:48:40.081Z,7.00
2019-02-27T22:51:13.508Z,7.50
2019-02-27T22:53:45.641Z,7.40
2019-02-27T22:56:18.211Z,7.90
2019-02-27T22:58:51.595Z,7.00
2019-02-27T23:06:50.410Z,7.40
2019-02-27T23:09:22.266Z,7.70
2019-02-27T23:11:53.676Z,7.30
2019-02-27T23:14:26.181Z,7.60
2019-02-27T23:17:00.580Z,7.40
2019-02-27T23:19:30.949Z,7.10
2019-02-27T23:22:06.297Z,7.20
2019-02-27T23:24:37.664Z,7.50
2019-02-27T23:27:09.094Z,7.20
2019-02-27T23:32:12.848Z,7.30
2019-02-27T23:37:15.182Z,6.90
2019-02-27T23:39:46.995Z,7.30
2019-02-27T23:42:18.620Z,7.10
2019-02-27T23:44:50.433Z,6.90
2019-02-27T23:47:22.548Z,6.80
2019-02-27T23:50:03.136Z,6.70
2019-02-27T23:52:38.414Z,6.80
2019-02-27T23:57:43.792Z,6.60
